sensor_id;sensor_type;location;lat;lon;timestamp;pressure;altitude;pressure_sealevel;temperature;humidity
46946;BME280;32679;40.810;14.498;2022-08-25T00:01:25;99924.38;;;23.73;53.23
46946;BME280;32679;40.810;14.498;2022-08-25T00:03:51;99927.47;;;23.66;53.70
46946;BME280;32679;40.810;14.498;2022-08-25T00:06:16;99925.06;;;23.64;53.27
46946;BME280;32679;40.810;14.498;2022-08-25T00:08:42;99931.75;;;23.58;54.47
46946;BME280;32679;40.810;14.498;2022-08-25T00:11:12;99927.22;;;23.60;53.50
46946;BME280;32679;40.810;14.498;2022-08-25T00:13:39;99927.59;;;23.49;54.08
46946;BME280;32679;40.810;14.498;2022-08-25T00:16:06;99920.97;;;23.52;53.44
46946;BME280;32679;40.810;14.498;2022-08-25T00:18:32;99917.72;;;23.41;54.12
46946;BME280;32679;40.810;14.498;2022-08-25T00:20:57;99914.97;;;23.38;53.93
46946;BME280;32679;40.810;14.498;2022-08-25T00:23:23;99914.19;;;23.37;54.70
46946;BME280;32679;40.810;14.498;2022-08-25T00:25:48;99922.13;;;23.42;54.53
46946;BME280;32679;40.810;14.498;2022-08-25T00:28:15;99917.38;;;23.39;53.82
46946;BME280;32679;40.810;14.498;2022-08-25T00:30:41;99922.81;;;23.46;53.70
46946;BME280;32679;40.810;14.498;2022-08-25T00:33:06;99922.94;;;23.43;53.50
46946;BME280;32679;40.810;14.498;2022-08-25T00:35:35;99922.94;;;23.43;53.19
46946;BME280;32679;40.810;14.498;2022-08-25T00:38:00;99918.97;;;23.40;52.62
46946;BME280;32679;40.810;14.498;2022-08-25T00:40:26;99924.75;;;23.37;52.90
46946;BME280;32679;40.810;14.498;2022-08-25T00:42:52;99920.44;;;23.32;53.24
46946;BME280;32679;40.810;14.498;2022-08-25T00:45:18;99921.03;;;23.27;53.31
46946;BME280;32679;40.810;14.498;2022-08-25T00:47:43;99929.09;;;23.29;54.08
46946;BME280;32679;40.810;14.498;2022-08-25T00:50:09;99922.84;;;23.21;54.49
46946;BME280;32679;40.810;14.498;2022-08-25T00:52:57;99914.56;;;23.26;53.93
46946;BME280;32679;40.810;14.498;2022-08-25T00:55:25;99922.06;;;23.20;54.04
46946;BME280;32679;40.810;14.498;2022-08-25T00:57:57;99920.47;;;23.19;54.28
46946;BME280;32679;40.810;14.498;2022-08-25T01:02:49;99919.09;;;23.11;54.44
46946;BME280;32679;40.810;14.498;2022-08-25T01:05:15;99912.19;;;23.25;56.79
46946;BME280;32679;40.810;14.498;2022-08-25T01:07:42;99918.22;;;23.14;54.92
46946;BME280;32679;40.810;14.498;2022-08-25T01:10:08;99912.63;;;23.11;55.32
46946;BME280;32679;40.810;14.498;2022-08-25T01:12:34;99921.16;;;23.11;55.93
46946;BME280;32679;40.810;14.498;2022-08-25T01:15:02;99911.75;;;23.14;55.28
46946;BME280;32679;40.810;14.498;2022-08-25T01:17:32;99915.47;;;23.11;55.20
46946;BME280;32679;40.810;14.498;2022-08-25T01:19:58;99906.31;;;23.07;55.74
46946;BME280;32679;40.810;14.498;2022-08-25T01:22:24;99912.63;;;23.11;55.22
46946;BME280;32679;40.810;14.498;2022-08-25T01:25:01;99917.88;;;22.99;55.92
46946;BME280;32679;40.810;14.498;2022-08-25T01:27:29;99909.94;;;22.94;56.65
46946;BME280;32679;40.810;14.498;2022-08-25T01:29:55;99906.66;;;22.96;56.17
46946;BME280;32679;40.810;14.498;2022-08-25T01:32:21;99906.75;;;22.92;56.35
46946;BME280;32679;40.810;14.498;2022-08-25T01:34:47;99905.34;;;22.84;57.25
46946;BME280;32679;40.810;14.498;2022-08-25T01:37:13;99901.63;;;22.87;58.52
46946;BME280;32679;40.810;14.498;2022-08-25T01:39:40;99897.63;;;22.85;57.99
46946;BME280;32679;40.810;14.498;2022-08-25T01:44:33;99901.66;;;23.13;58.11
46946;BME280;32679;40.810;14.498;2022-08-25T01:47:00;99886.06;;;23.30;56.70
46946;BME280;32679;40.810;14.498;2022-08-25T01:49:25;99879.38;;;23.11;56.73
46946;BME280;32679;40.810;14.498;2022-08-25T01:51:52;99882.25;;;22.98;57.09
46946;BME280;32679;40.810;14.498;2022-08-25T01:54:19;99890.06;;;22.94;57.31
46946;BME280;32679;40.810;14.498;2022-08-25T01:56:45;99879.09;;;22.96;57.20
46946;BME280;32679;40.810;14.498;2022-08-25T01:59:10;99887.00;;;22.89;57.37
46946;BME280;32679;40.810;14.498;2022-08-25T02:01:38;99874.28;;;23.19;58.54
46946;BME280;32679;40.810;14.498;2022-08-25T02:04:03;99875.00;;;22.97;57.32
46946;BME280;32679;40.810;14.498;2022-08-25T02:06:30;99870.78;;;22.89;57.55
46946;BME280;32679;40.810;14.498;2022-08-25T02:08:58;99868.16;;;22.82;58.14
46946;BME280;32679;40.810;14.498;2022-08-25T02:11:25;99872.03;;;22.75;58.12
46946;BME280;32679;40.810;14.498;2022-08-25T02:13:53;99866.00;;;22.73;58.29
46946;BME280;32679;40.810;14.498;2022-08-25T02:16:21;99867.94;;;22.64;58.80
46946;BME280;32679;40.810;14.498;2022-08-25T02:18:47;99872.72;;;22.92;59.95
46946;BME280;32679;40.810;14.498;2022-08-25T02:21:12;99874.31;;;22.93;59.78
46946;BME280;32679;40.810;14.498;2022-08-25T02:23:38;99872.38;;;23.50;58.97
46946;BME280;32679;40.810;14.498;2022-08-25T02:26:04;99871.03;;;23.42;59.64
46946;BME280;32679;40.810;14.498;2022-08-25T02:28:29;99866.50;;;23.32;57.71
46946;BME280;32679;40.810;14.498;2022-08-25T02:30:54;99874.16;;;23.22;57.35
46946;BME280;32679;40.810;14.498;2022-08-25T02:33:20;99861.25;;;23.09;57.44
46946;BME280;32679;40.810;14.498;2022-08-25T02:35:46;99861.47;;;23.14;58.13
46946;BME280;32679;40.810;14.498;2022-08-25T02:38:12;99867.03;;;23.18;55.94
46946;BME280;32679;40.810;14.498;2022-08-25T02:40:37;99868.84;;;23.12;57.06
46946;BME280;32679;40.810;14.498;2022-08-25T02:43:03;99863.41;;;23.05;57.79
46946;BME280;32679;40.810;14.498;2022-08-25T02:45:30;99861.13;;;22.99;58.02
46946;BME280;32679;40.810;14.498;2022-08-25T02:47:56;99860.09;;;23.06;58.67
46946;BME280;32679;40.810;14.498;2022-08-25T02:50:21;99854.19;;;23.00;56.61
46946;BME280;32679;40.810;14.498;2022-08-25T02:52:47;99862.72;;;23.00;58.71
46946;BME280;32679;40.810;14.498;2022-08-25T02:55:16;99854.88;;;23.17;57.93
46946;BME280;32679;40.810;14.498;2022-08-25T02:57:41;99849.31;;;23.14;57.80
46946;BME280;32679;40.810;14.498;2022-08-25T03:00:11;99855.56;;;23.09;57.39
46946;BME280;32679;40.810;14.498;2022-08-25T03:02:37;99846.63;;;22.97;58.76
46946;BME280;32679;40.810;14.498;2022-08-25T03:05:03;99845.94;;;22.93;58.32
46946;BME280;32679;40.810;14.498;2022-08-25T03:07:28;99847.53;;;22.94;58.82
46946;BME280;32679;40.810;14.498;2022-08-25T03:09:54;99850.81;;;22.93;62.03
46946;BME280;32679;40.810;14.498;2022-08-25T03:12:19;99851.81;;;22.86;59.30
46946;BME280;32679;40.810;14.498;2022-08-25T03:14:46;99843.19;;;22.77;59.75
46946;BME280;32679;40.810;14.498;2022-08-25T03:17:11;99855.59;;;22.96;60.20
46946;BME280;32679;40.810;14.498;2022-08-25T03:19:39;99853.41;;;22.87;60.20
46946;BME280;32679;40.810;14.498;2022-08-25T03:22:05;99840.94;;;22.46;60.13
46946;BME280;32679;40.810;14.498;2022-08-25T03:24:30;99840.84;;;22.88;59.86
46946;BME280;32679;40.810;14.498;2022-08-25T03:26:56;99836.41;;;22.62;58.76
46946;BME280;32679;40.810;14.498;2022-08-25T03:29:22;99820.88;;;22.54;58.88
46946;BME280;32679;40.810;14.498;2022-08-25T03:31:49;99830.63;;;22.65;61.82
46946;BME280;32679;40.810;14.498;2022-08-25T03:34:15;99829.59;;;22.72;57.62
46946;BME280;32679;40.810;14.498;2022-08-25T03:36:41;99829.47;;;22.75;58.00
46946;BME280;32679;40.810;14.498;2022-08-25T03:39:06;99833.13;;;22.89;58.37
46946;BME280;32679;40.810;14.498;2022-08-25T03:41:32;99837.31;;;22.97;59.55
46946;BME280;32679;40.810;14.498;2022-08-25T03:43:58;99840.47;;;22.86;58.85
46946;BME280;32679;40.810;14.498;2022-08-25T03:46:27;99841.94;;;22.78;59.42
46946;BME280;32679;40.810;14.498;2022-08-25T03:48:53;99838.88;;;23.11;60.90
46946;BME280;32679;40.810;14.498;2022-08-25T03:51:23;99835.59;;;22.99;59.20
46946;BME280;32679;40.810;14.498;2022-08-25T03:53:48;99828.09;;;23.18;60.58
46946;BME280;32679;40.810;14.498;2022-08-25T03:56:14;99823.81;;;23.01;58.87
46946;BME280;32679;40.810;14.498;2022-08-25T03:58:40;99831.19;;;22.86;59.62
46946;BME280;32679;40.810;14.498;2022-08-25T04:01:05;99830.03;;;22.83;60.17
46946;BME280;32679;40.810;14.498;2022-08-25T04:03:31;99831.97;;;22.73;61.91
46946;BME280;32679;40.810;14.498;2022-08-25T04:05:59;99828.13;;;22.80;61.21
46946;BME280;32679;40.810;14.498;2022-08-25T04:08:25;99827.09;;;22.99;61.48
46946;BME280;32679;40.810;14.498;2022-08-25T04:10:50;99831.22;;;23.33;61.11
46946;BME280;32679;40.810;14.498;2022-08-25T04:13:15;99837.97;;;23.14;58.98
46946;BME280;32679;40.810;14.498;2022-08-25T04:15:42;99839.78;;;23.08;59.54
46946;BME280;32679;40.810;14.498;2022-08-25T04:18:11;99839.47;;;22.93;58.74
46946;BME280;32679;40.810;14.498;2022-08-25T04:20:39;99839.56;;;22.77;59.08
46946;BME280;32679;40.810;14.498;2022-08-25T04:23:07;99838.56;;;22.70;59.08
46946;BME280;32679;40.810;14.498;2022-08-25T04:25:33;99841.72;;;22.85;60.91
46946;BME280;32679;40.810;14.498;2022-08-25T04:27:59;99840.81;;;22.63;59.88
46946;BME280;32679;40.810;14.498;2022-08-25T04:30:24;99842.16;;;22.84;61.35
46946;BME280;32679;40.810;14.498;2022-08-25T04:32:49;99845.03;;;22.71;60.19
46946;BME280;32679;40.810;14.498;2022-08-25T04:35:15;99843.22;;;22.64;59.28
46946;BME280;32679;40.810;14.498;2022-08-25T04:37:40;99840.03;;;22.62;59.33
46946;BME280;32679;40.810;14.498;2022-08-25T04:40:06;99844.00;;;22.52;60.28
46946;BME280;32679;40.810;14.498;2022-08-25T04:42:32;99849.31;;;22.50;60.35
46946;BME280;32679;40.810;14.498;2022-08-25T04:44:57;99852.28;;;22.97;61.74
46946;BME280;32679;40.810;14.498;2022-08-25T04:47:26;99845.94;;;22.93;59.95
46946;BME280;32679;40.810;14.498;2022-08-25T04:49:54;99845.25;;;22.89;59.33
46946;BME280;32679;40.810;14.498;2022-08-25T04:52:22;99852.72;;;22.83;59.47
46946;BME280;32679;40.810;14.498;2022-08-25T04:54:48;99854.53;;;22.77;60.13
46946;BME280;32679;40.810;14.498;2022-08-25T04:57:13;99858.28;;;22.74;59.92
46946;BME280;32679;40.810;14.498;2022-08-25T04:59:38;99860.44;;;22.95;61.05
46946;BME280;32679;40.810;14.498;2022-08-25T05:02:04;99853.97;;;22.95;59.30
46946;BME280;32679;40.810;14.498;2022-08-25T05:04:31;99859.31;;;23.06;59.20
46946;BME280;32679;40.810;14.498;2022-08-25T05:06:57;99852.13;;;23.26;59.09
46946;BME280;32679;40.810;14.498;2022-08-25T05:09:22;99854.34;;;23.44;58.70
46946;BME280;32679;40.810;14.498;2022-08-25T05:11:51;99857.13;;;23.57;57.97
46946;BME280;32679;40.810;14.498;2022-08-25T05:14:16;99858.72;;;23.71;57.10
46946;BME280;32679;40.810;14.498;2022-08-25T05:16:45;99850.91;;;23.84;56.46
46946;BME280;32679;40.810;14.498;2022-08-25T05:19:11;99853.03;;;24.15;55.39
46946;BME280;32679;40.810;14.498;2022-08-25T05:21:36;99855.63;;;24.53;54.81
46946;BME280;32679;40.810;14.498;2022-08-25T05:24:02;99852.16;;;24.89;53.51
46946;BME280;32679;40.810;14.498;2022-08-25T05:26:28;99857.34;;;25.49;52.44
46946;BME280;32679;40.810;14.498;2022-08-25T05:28:55;99858.00;;;25.99;52.50
46946;BME280;32679;40.810;14.498;2022-08-25T05:31:21;99855.38;;;26.47;49.72
46946;BME280;32679;40.810;14.498;2022-08-25T05:33:47;99866.34;;;26.82;48.23
46946;BME280;32679;40.810;14.498;2022-08-25T05:36:13;99865.94;;;26.98;45.87
46946;BME280;32679;40.810;14.498;2022-08-25T05:38:38;99865.16;;;27.31;46.07
46946;BME280;32679;40.810;14.498;2022-08-25T05:41:07;99861.41;;;27.63;44.44
46946;BME280;32679;40.810;14.498;2022-08-25T05:43:34;99856.09;;;27.95;43.96
46946;BME280;32679;40.810;14.498;2022-08-25T05:46:00;99851.47;;;28.12;43.77
46946;BME280;32679;40.810;14.498;2022-08-25T05:48:25;99851.00;;;28.14;43.60
46946;BME280;32679;40.810;14.498;2022-08-25T05:50:55;99851.19;;;28.10;43.77
46946;BME280;32679;40.810;14.498;2022-08-25T05:53:22;99867.31;;;27.84;44.16
46946;BME280;32679;40.810;14.498;2022-08-25T05:55:48;99861.50;;;27.54;46.44
46946;BME280;32679;40.810;14.498;2022-08-25T05:58:15;99862.78;;;27.29;46.48
46946;BME280;32679;40.810;14.498;2022-08-25T06:00:40;99864.66;;;27.08;46.55
46946;BME280;32679;40.810;14.498;2022-08-25T06:03:05;99862.19;;;26.92;46.53
46946;BME280;32679;40.810;14.498;2022-08-25T06:05:31;99861.34;;;27.01;46.53
46946;BME280;32679;40.810;14.498;2022-08-25T06:07:59;99864.78;;;26.81;47.70
46946;BME280;32679;40.810;14.498;2022-08-25T06:10:25;99862.34;;;26.88;45.46
46946;BME280;32679;40.810;14.498;2022-08-25T06:12:50;99857.13;;;26.87;46.44
46946;BME280;32679;40.810;14.498;2022-08-25T06:15:17;99856.53;;;26.74;47.10
46946;BME280;32679;40.810;14.498;2022-08-25T06:17:42;99858.16;;;26.75;45.58
46946;BME280;32679;40.810;14.498;2022-08-25T06:20:09;99858.16;;;26.75;48.27
46946;BME280;32679;40.810;14.498;2022-08-25T06:22:35;99850.53;;;26.72;47.54
46946;BME280;32679;40.810;14.498;2022-08-25T06:25:02;99855.06;;;26.36;46.21
46946;BME280;32679;40.810;14.498;2022-08-25T06:27:27;99850.00;;;26.49;48.90
46946;BME280;32679;40.810;14.498;2022-08-25T06:29:52;99847.69;;;26.72;47.97
46946;BME280;32679;40.810;14.498;2022-08-25T06:32:18;99844.75;;;26.90;45.90
46946;BME280;32679;40.810;14.498;2022-08-25T06:34:43;99846.75;;;27.08;46.09
46946;BME280;32679;40.810;14.498;2022-08-25T06:37:09;99842.69;;;27.24;45.00
46946;BME280;32679;40.810;14.498;2022-08-25T06:39:34;99847.66;;;27.38;44.92
46946;BME280;32679;40.810;14.498;2022-08-25T06:41:59;99845.22;;;27.46;44.79
46946;BME280;32679;40.810;14.498;2022-08-25T06:44:25;99844.38;;;27.54;44.81
46946;BME280;32679;40.810;14.498;2022-08-25T06:46:51;99843.94;;;27.71;45.03
46946;BME280;32679;40.810;14.498;2022-08-25T06:49:17;99845.81;;;27.74;44.99
46946;BME280;32679;40.810;14.498;2022-08-25T06:51:42;99846.03;;;27.85;44.53
46946;BME280;32679;40.810;14.498;2022-08-25T06:54:08;99844.84;;;27.53;43.41
46946;BME280;32679;40.810;14.498;2022-08-25T06:56:36;99841.09;;;27.71;43.67
46946;BME280;32679;40.810;14.498;2022-08-25T06:59:03;99844.53;;;27.75;43.05
46946;BME280;32679;40.810;14.498;2022-08-25T07:01:29;99842.97;;;27.50;44.49
46946;BME280;32679;40.810;14.498;2022-08-25T07:04:00;99845.81;;;27.74;44.08
46946;BME280;32679;40.810;14.498;2022-08-25T07:06:27;99848.72;;;28.03;42.86
46946;BME280;32679;40.810;14.498;2022-08-25T07:08:53;99841.50;;;28.23;42.57
46946;BME280;32679;40.810;14.498;2022-08-25T07:11:18;99834.84;;;28.55;42.26
46946;BME280;32679;40.810;14.498;2022-08-25T07:13:47;99831.38;;;28.51;41.46
46946;BME280;32679;40.810;14.498;2022-08-25T07:16:13;99828.50;;;28.66;41.02
46946;BME280;32679;40.810;14.498;2022-08-25T07:18:42;99832.59;;;28.80;40.88
46946;BME280;32679;40.810;14.498;2022-08-25T07:21:08;99835.25;;;29.18;41.77
46946;BME280;32679;40.810;14.498;2022-08-25T07:23:33;99837.16;;;29.62;39.84
46946;BME280;32679;40.810;14.498;2022-08-25T07:28:36;99837.03;;;30.23;37.98
46946;BME280;32679;40.810;14.498;2022-08-25T07:31:02;99839.00;;;29.25;39.37
46946;BME280;32679;40.810;14.498;2022-08-25T07:33:31;99839.47;;;29.58;39.11
46946;BME280;32679;40.810;14.498;2022-08-25T07:35:56;99845.59;;;29.10;40.45
46946;BME280;32679;40.810;14.498;2022-08-25T07:38:22;99848.59;;;29.42;40.32
46946;BME280;32679;40.810;14.498;2022-08-25T07:40:47;99857.06;;;29.51;40.48
46946;BME280;32679;40.810;14.498;2022-08-25T07:43:19;99853.03;;;29.43;39.91
46946;BME280;32679;40.810;14.498;2022-08-25T07:45:47;99859.81;;;29.60;40.77
46946;BME280;32679;40.810;14.498;2022-08-25T07:48:13;99856.44;;;29.62;39.13
46946;BME280;32679;40.810;14.498;2022-08-25T07:50:40;99854.22;;;30.18;38.28
46946;BME280;32679;40.810;14.498;2022-08-25T07:53:12;99849.88;;;30.28;37.00
46946;BME280;32679;40.810;14.498;2022-08-25T07:55:38;99847.94;;;30.45;37.24
46946;BME280;32679;40.810;14.498;2022-08-25T07:58:05;99850.59;;;30.81;35.27
46946;BME280;32679;40.810;14.498;2022-08-25T08:00:32;99858.94;;;31.64;33.65
46946;BME280;32679;40.810;14.498;2022-08-25T08:03:02;99862.72;;;32.04;33.08
46946;BME280;32679;40.810;14.498;2022-08-25T08:05:27;99864.06;;;32.31;33.03
46946;BME280;32679;40.810;14.498;2022-08-25T08:07:53;99862.19;;;32.11;32.86
46946;BME280;32679;40.810;14.498;2022-08-25T08:10:19;99855.81;;;31.73;33.64
46946;BME280;32679;40.810;14.498;2022-08-25T08:12:45;99864.81;;;32.03;33.67
46946;BME280;32679;40.810;14.498;2022-08-25T08:15:10;99864.09;;;32.53;32.02
46946;BME280;32679;40.810;14.498;2022-08-25T08:17:36;99864.84;;;32.31;33.16
46946;BME280;32679;40.810;14.498;2022-08-25T08:20:02;99864.25;;;31.94;34.41
46946;BME280;32679;40.810;14.498;2022-08-25T08:22:30;99856.59;;;31.74;34.43
46946;BME280;32679;40.810;14.498;2022-08-25T08:24:55;99854.97;;;31.62;34.15
46946;BME280;32679;40.810;14.498;2022-08-25T08:27:22;99863.03;;;31.52;33.96
46946;BME280;32679;40.810;14.498;2022-08-25T08:29:48;99853.56;;;32.00;33.38
46946;BME280;32679;40.810;14.498;2022-08-25T08:32:14;99867.16;;;32.05;32.04
46946;BME280;32679;40.810;14.498;2022-08-25T08:34:39;99858.84;;;32.24;32.00
46946;BME280;32679;40.810;14.498;2022-08-25T08:37:06;99855.97;;;32.18;31.89
46946;BME280;32679;40.810;14.498;2022-08-25T08:39:31;99861.72;;;32.29;32.12
46946;BME280;32679;40.810;14.498;2022-08-25T08:42:22;99856.41;;;31.89;32.99
46946;BME280;32679;40.810;14.498;2022-08-25T08:52:39;99858.28;;;32.14;33.31
46946;BME280;32679;40.810;14.498;2022-08-25T08:55:22;99858.69;;;31.73;34.00
46946;BME280;32679;40.810;14.498;2022-08-25T08:57:48;99863.06;;;32.51;33.01
46946;BME280;32679;40.810;14.498;2022-08-25T09:00:15;99862.28;;;32.67;32.22
46946;BME280;32679;40.810;14.498;2022-08-25T09:05:12;99863.47;;;33.45;30.94
46946;BME280;32679;40.810;14.498;2022-08-25T09:07:40;99865.63;;;33.27;31.60
46946;BME280;32679;40.810;14.498;2022-08-25T09:10:09;99872.44;;;33.41;30.48
46946;BME280;32679;40.810;14.498;2022-08-25T09:12:43;99863.34;;;32.98;31.52
46946;BME280;32679;40.810;14.498;2022-08-25T09:20:14;99865.41;;;32.92;31.25
46946;BME280;32679;40.810;14.498;2022-08-25T09:22:54;99863.81;;;31.47;33.24
46946;BME280;32679;40.810;14.498;2022-08-25T09:28:05;99848.66;;;32.96;31.68
46946;BME280;32679;40.810;14.498;2022-08-25T09:30:52;99849.72;;;32.87;31.29
46946;BME280;32679;40.810;14.498;2022-08-25T09:33:20;99848.13;;;32.64;31.65
46946;BME280;32679;40.810;14.498;2022-08-25T09:35:46;99852.34;;;32.68;31.72
46946;BME280;32679;40.810;14.498;2022-08-25T09:38:12;99856.50;;;32.78;30.84
46946;BME280;32679;40.810;14.498;2022-08-25T09:40:41;99854.16;;;32.94;31.37
46946;BME280;32679;40.810;14.498;2022-08-25T09:46:09;99850.50;;;33.79;29.54
46946;BME280;32679;40.810;14.498;2022-08-25T09:53:44;99847.63;;;32.99;31.06
46946;BME280;32679;40.810;14.498;2022-08-25T09:56:12;99855.47;;;32.37;31.88
46946;BME280;32679;40.810;14.498;2022-08-25T09:58:38;99843.34;;;33.22;31.11
46946;BME280;32679;40.810;14.498;2022-08-25T10:01:05;99846.28;;;33.05;31.15
46946;BME280;32679;40.810;14.498;2022-08-25T10:03:30;99842.31;;;33.25;31.27
46946;BME280;32679;40.810;14.498;2022-08-25T10:08:33;99843.34;;;31.88;33.80
46946;BME280;32679;40.810;14.498;2022-08-25T10:10:59;99843.94;;;32.48;32.08
46946;BME280;32679;40.810;14.498;2022-08-25T10:13:33;99839.22;;;32.78;32.10
46946;BME280;32679;40.810;14.498;2022-08-25T10:16:07;99848.91;;;32.75;31.98
46946;BME280;32679;40.810;14.498;2022-08-25T10:18:33;99852.09;;;32.49;32.30
46946;BME280;32679;40.810;14.498;2022-08-25T10:21:16;99838.13;;;33.15;31.43
46946;BME280;32679;40.810;14.498;2022-08-25T10:23:47;99839.78;;;32.66;32.02
46946;BME280;32679;40.810;14.498;2022-08-25T10:29:01;99837.06;;;31.95;33.77
46946;BME280;32679;40.810;14.498;2022-08-25T10:39:07;99820.44;;;31.02;35.35
46946;BME280;32679;40.810;14.498;2022-08-25T10:41:39;99827.00;;;30.39;36.35
46946;BME280;32679;40.810;14.498;2022-08-25T10:52:31;99819.50;;;30.42;36.78
46946;BME280;32679;40.810;14.498;2022-08-25T10:55:06;99820.06;;;30.20;37.49
46946;BME280;32679;40.810;14.498;2022-08-25T11:00:21;99814.94;;;29.78;38.72
46946;BME280;32679;40.810;14.498;2022-08-25T11:05:39;99807.25;;;30.15;38.44
46946;BME280;32679;40.810;14.498;2022-08-25T11:10:41;99806.44;;;30.46;37.51
46946;BME280;32679;40.810;14.498;2022-08-25T11:13:10;99810.41;;;30.81;36.89
46946;BME280;32679;40.810;14.498;2022-08-25T11:15:40;99806.47;;;30.84;36.84
46946;BME280;32679;40.810;14.498;2022-08-25T11:18:10;99811.97;;;30.82;36.82
46946;BME280;32679;40.810;14.498;2022-08-25T11:20:59;99811.69;;;30.80;37.04
46946;BME280;32679;40.810;14.498;2022-08-25T11:23:27;99811.56;;;31.48;36.43
46946;BME280;32679;40.810;14.498;2022-08-25T11:26:12;99811.69;;;31.22;36.36
46946;BME280;32679;40.810;14.498;2022-08-25T11:31:02;99804.19;;;31.42;36.22
46946;BME280;32679;40.810;14.498;2022-08-25T11:33:28;99804.59;;;31.18;35.81
46946;BME280;32679;40.810;14.498;2022-08-25T11:36:00;99793.47;;;31.37;36.38
46946;BME280;32679;40.810;14.498;2022-08-25T11:41:16;99797.56;;;31.24;36.12
46946;BME280;32679;40.810;14.498;2022-08-25T11:51:42;99790.63;;;30.94;36.65
46946;BME280;32679;40.810;14.498;2022-08-25T11:54:22;99793.72;;;30.85;37.29
46946;BME280;32679;40.810;14.498;2022-08-25T12:02:01;99804.22;;;30.99;36.16
46946;BME280;32679;40.810;14.498;2022-08-25T12:04:32;99799.31;;;31.59;35.25
46946;BME280;32679;40.810;14.498;2022-08-25T12:17:40;99783.81;;;31.34;35.19
46946;BME280;32679;40.810;14.498;2022-08-25T12:20:06;99784.94;;;31.59;34.51
46946;BME280;32679;40.810;14.498;2022-08-25T12:32:28;99769.91;;;33.46;31.86
46946;BME280;32679;40.810;14.498;2022-08-25T12:37:34;99768.75;;;32.96;31.87
46946;BME280;32679;40.810;14.498;2022-08-25T12:40:21;99767.53;;;32.52;32.80
46946;BME280;32679;40.810;14.498;2022-08-25T12:42:51;99768.31;;;32.53;33.69
46946;BME280;32679;40.810;14.498;2022-08-25T12:47:54;99768.59;;;32.55;34.47
46946;BME280;32679;40.810;14.498;2022-08-25T12:50:41;99771.94;;;32.65;34.72
46946;BME280;32679;40.810;14.498;2022-08-25T12:53:53;99764.59;;;32.80;34.22
46946;BME280;32679;40.810;14.498;2022-08-25T12:55:55;99768.28;;;32.64;34.99
46946;BME280;32679;40.810;14.498;2022-08-25T12:58:21;99765.06;;;33.01;33.99
46946;BME280;32679;40.810;14.498;2022-08-25T13:11:06;99750.78;;;34.20;33.21
46946;BME280;32679;40.810;14.498;2022-08-25T13:13:38;99752.97;;;33.72;33.92
46946;BME280;32679;40.810;14.498;2022-08-25T13:16:14;99747.63;;;33.46;33.75
46946;BME280;32679;40.810;14.498;2022-08-25T13:18:40;99743.56;;;33.66;33.79
46946;BME280;32679;40.810;14.498;2022-08-25T13:23:42;99737.34;;;34.58;32.23
46946;BME280;32679;40.810;14.498;2022-08-25T13:26:09;99739.28;;;34.74;31.78
46946;BME280;32679;40.810;14.498;2022-08-25T13:28:36;99735.63;;;34.44;32.56
46946;BME280;32679;40.810;14.498;2022-08-25T13:33:32;99739.22;;;33.89;33.21
46946;BME280;32679;40.810;14.498;2022-08-25T13:35:58;99724.50;;;33.57;35.05
46946;BME280;32679;40.810;14.498;2022-08-25T13:38:43;99718.09;;;33.23;35.23
46946;BME280;32679;40.810;14.498;2022-08-25T13:41:15;99734.22;;;33.49;34.81
46946;BME280;32679;40.810;14.498;2022-08-25T13:43:41;99721.53;;;33.16;35.64
46946;BME280;32679;40.810;14.498;2022-08-25T13:46:06;99730.84;;;33.39;35.44
46946;BME280;32679;40.810;14.498;2022-08-25T13:48:35;99723.50;;;32.74;35.62
46946;BME280;32679;40.810;14.498;2022-08-25T13:53:56;99715.09;;;32.88;36.32
46946;BME280;32679;40.810;14.498;2022-08-25T13:56:23;99716.38;;;32.81;36.24
46946;BME280;32679;40.810;14.498;2022-08-25T13:58:49;99719.28;;;32.92;36.35
46946;BME280;32679;40.810;14.498;2022-08-25T14:03:49;99710.38;;;32.84;35.61
46946;BME280;32679;40.810;14.498;2022-08-25T14:08:41;99710.47;;;33.26;35.34
46946;BME280;32679;40.810;14.498;2022-08-25T14:13:59;99719.66;;;33.24;35.24
46946;BME280;32679;40.810;14.498;2022-08-25T14:16:24;99704.06;;;32.86;35.14
46946;BME280;32679;40.810;14.498;2022-08-25T14:18:51;99705.59;;;33.09;34.90
46946;BME280;32679;40.810;14.498;2022-08-25T14:21:18;99709.84;;;33.50;34.02
46946;BME280;32679;40.810;14.498;2022-08-25T14:23:44;99711.00;;;33.71;34.23
46946;BME280;32679;40.810;14.498;2022-08-25T14:26:09;99706.97;;;33.85;34.00
46946;BME280;32679;40.810;14.498;2022-08-25T14:28:35;99708.63;;;34.11;33.44
46946;BME280;32679;40.810;14.498;2022-08-25T14:31:07;99706.13;;;33.96;33.69
46946;BME280;32679;40.810;14.498;2022-08-25T14:33:36;99705.16;;;34.18;33.79
46946;BME280;32679;40.810;14.498;2022-08-25T14:36:02;99697.34;;;34.37;33.77
46946;BME280;32679;40.810;14.498;2022-08-25T14:38:29;99705.97;;;33.42;35.29
46946;BME280;32679;40.810;14.498;2022-08-25T14:40:54;99695.72;;;33.46;35.25
46946;BME280;32679;40.810;14.498;2022-08-25T14:43:20;99699.41;;;33.41;35.90
46946;BME280;32679;40.810;14.498;2022-08-25T14:45:46;99703.97;;;33.67;35.26
46946;BME280;32679;40.810;14.498;2022-08-25T14:48:13;99697.56;;;33.38;35.68
46946;BME280;32679;40.810;14.498;2022-08-25T14:50:42;99684.34;;;33.13;36.34
46946;BME280;32679;40.810;14.498;2022-08-25T14:53:08;99689.66;;;33.03;36.05
46946;BME280;32679;40.810;14.498;2022-08-25T14:55:34;99695.25;;;33.31;35.49
46946;BME280;32679;40.810;14.498;2022-08-25T14:58:00;99685.81;;;33.30;35.75
46946;BME280;32679;40.810;14.498;2022-08-25T15:00:25;99686.84;;;32.69;36.23
46946;BME280;32679;40.810;14.498;2022-08-25T15:02:50;99683.13;;;32.85;36.15
46946;BME280;32679;40.810;14.498;2022-08-25T15:05:18;99678.44;;;32.82;36.38